sensor_id;sensor_type;location;lat;lon;timestamp;temperature;humidity
13992;DHT22;7070;53.586;9.692;2024-03-08T00:00:28;1.40;83.70
13992;DHT22;7070;53.586;9.692;2024-03-08T00:02:58;1.60;84.00
13992;DHT22;7070;53.586;9.692;2024-03-08T00:05:26;1.30;83.60
13992;DHT22;7070;53.586;9.692;2024-03-08T00:07:55;1.30;83.70
13992;DHT22;7070;53.586;9.692;2024-03-08T00:10:22;1.40;84.00
13992;DHT22;7070;53.586;9.692;2024-03-08T00:12:49;1.30;83.70
13992;DHT22;7070;53.586;9.692;2024-03-08T00:15:17;1.30;83.80
13992;DHT22;7070;53.586;9.692;2024-03-08T00:17:45;1.30;84.00
13992;DHT22;7070;53.586;9.692;2024-03-08T00:20:11;1.20;83.80
13992;DHT22;7070;53.586;9.692;2024-03-08T00:22:39;1.30;83.90
13992;DHT22;7070;53.586;9.692;2024-03-08T00:25:08;1.30;84.00
13992;DHT22;7070;53.586;9.692;2024-03-08T00:27:35;1.20;83.90
13992;DHT22;7070;53.586;9.692;2024-03-08T00:30:03;1.20;83.90
13992;DHT22;7070;53.586;9.692;2024-03-08T00:32:30;1.20;83.80
13992;DHT22;7070;53.586;9.692;2024-03-08T00:34:58;1.30;83.90
13992;DHT22;7070;53.586;9.692;2024-03-08T00:37:25;1.20;84.00
13992;DHT22;7070;53.586;9.692;2024-03-08T00:39:52;1.20;84.00
13992;DHT22;7070;53.586;9.692;2024-03-08T00:42:20;1.40;84.20
13992;DHT22;7070;53.586;9.692;2024-03-08T00:44:47;1.10;84.00
13992;DHT22;7070;53.586;9.692;2024-03-08T00:47:16;1.20;84.00
13992;DHT22;7070;53.586;9.692;2024-03-08T00:49:43;1.10;84.00
13992;DHT22;7070;53.586;9.692;2024-03-08T00:52:10;1.10;84.00
13992;DHT22;7070;53.586;9.692;2024-03-08T00:54:37;1.10;84.00
13992;DHT22;7070;53.586;9.692;2024-03-08T00:57:04;1.10;83.90
13992;DHT22;7070;53.586;9.692;2024-03-08T00:59:33;1.00;83.90
13992;DHT22;7070;53.586;9.692;2024-03-08T01:02:00;1.00;83.80
13992;DHT22;7070;53.586;9.692;2024-03-08T01:04:27;1.00;83.90
13992;DHT22;7070;53.586;9.692;2024-03-08T01:06:55;1.00;84.00
13992;DHT22;7070;53.586;9.692;2024-03-08T01:09:22;1.00;84.00
13992;DHT22;7070;53.586;9.692;2024-03-08T01:11:49;0.90;83.90
13992;DHT22;7070;53.586;9.692;2024-03-08T01:14:16;0.90;83.90
13992;DHT22;7070;53.586;9.692;2024-03-08T01:16:45;0.90;83.90
13992;DHT22;7070;53.586;9.692;2024-03-08T01:19:11;0.90;83.90
13992;DHT22;7070;53.586;9.692;2024-03-08T01:21:39;0.80;83.90
13992;DHT22;7070;53.586;9.692;2024-03-08T01:24:06;0.80;83.90
13992;DHT22;7070;53.586;9.692;2024-03-08T01:26:33;0.80;83.90
13992;DHT22;7070;53.586;9.692;2024-03-08T01:29:00;0.70;84.00
13992;DHT22;7070;53.586;9.692;2024-03-08T01:31:28;0.80;84.00
13992;DHT22;7070;53.586;9.692;2024-03-08T01:33:56;0.70;83.90
13992;DHT22;7070;53.586;9.692;2024-03-08T01:36:23;0.70;83.90
13992;DHT22;7070;53.586;9.692;2024-03-08T01:38:50;0.70;84.00
13992;DHT22;7070;53.586;9.692;2024-03-08T01:41:17;0.70;84.00
13992;DHT22;7070;53.586;9.692;2024-03-08T01:43:45;0.60;83.90
13992;DHT22;7070;53.586;9.692;2024-03-08T01:46:15;0.60;84.00
13992;DHT22;7070;53.586;9.692;2024-03-08T01:48:46;0.60;84.70
13992;DHT22;7070;53.586;9.692;2024-03-08T01:51:15;0.60;84.20
13992;DHT22;7070;53.586;9.692;2024-03-08T01:53:44;0.60;84.10
13992;DHT22;7070;53.586;9.692;2024-03-08T01:56:12;0.60;84.00
13992;DHT22;7070;53.586;9.692;2024-03-08T01:58:41;0.50;83.90
13992;DHT22;7070;53.586;9.692;2024-03-08T02:01:10;0.50;83.90
13992;DHT22;7070;53.586;9.692;2024-03-08T02:03:37;0.50;84.10
13992;DHT22;7070;53.586;9.692;2024-03-08T02:06:04;0.50;84.20
13992;DHT22;7070;53.586;9.692;2024-03-08T02:08:37;0.50;84.10
13992;DHT22;7070;53.586;9.692;2024-03-08T02:11:04;0.50;84.30
13992;DHT22;7070;53.586;9.692;2024-03-08T02:13:31;0.50;84.20
13992;DHT22;7070;53.586;9.692;2024-03-08T02:16:00;0.40;84.40
13992;DHT22;7070;53.586;9.692;2024-03-08T02:18:28;0.40;84.30
13992;DHT22;7070;53.586;9.692;2024-03-08T02:20:58;0.40;84.30
13992;DHT22;7070;53.586;9.692;2024-03-08T02:23:26;0.40;84.30
13992;DHT22;7070;53.586;9.692;2024-03-08T02:25:54;0.40;84.30
13992;DHT22;7070;53.586;9.692;2024-03-08T02:28:22;0.40;84.10
13992;DHT22;7070;53.586;9.692;2024-03-08T02:30:51;0.40;84.10
13992;DHT22;7070;53.586;9.692;2024-03-08T02:33:20;0.30;84.10
13992;DHT22;7070;53.586;9.692;2024-03-08T02:35:47;0.30;84.80
13992;DHT22;7070;53.586;9.692;2024-03-08T02:38:17;0.30;84.30
13992;DHT22;7070;53.586;9.692;2024-03-08T02:40:44;0.30;84.40
13992;DHT22;7070;53.586;9.692;2024-03-08T02:43:12;0.30;84.30
13992;DHT22;7070;53.586;9.692;2024-03-08T02:45:40;0.30;84.90
13992;DHT22;7070;53.586;9.692;2024-03-08T02:48:08;0.30;84.40
13992;DHT22;7070;53.586;9.692;2024-03-08T02:50:35;0.30;84.50
13992;DHT22;7070;53.586;9.692;2024-03-08T02:53:02;0.30;84.40
13992;DHT22;7070;53.586;9.692;2024-03-08T02:55:30;0.20;84.40
13992;DHT22;7070;53.586;9.692;2024-03-08T02:57:59;0.70;84.90
13992;DHT22;7070;53.586;9.692;2024-03-08T03:00:26;0.30;84.60
13992;DHT22;7070;53.586;9.692;2024-03-08T03:02:53;0.20;84.40
13992;DHT22;7070;53.586;9.692;2024-03-08T03:05:20;0.20;84.30
13992;DHT22;7070;53.586;9.692;2024-03-08T03:07:47;0.20;84.50
13992;DHT22;7070;53.586;9.692;2024-03-08T03:10:14;0.20;84.50
13992;DHT22;7070;53.586;9.692;2024-03-08T03:12:44;0.20;84.50
13992;DHT22;7070;53.586;9.692;2024-03-08T03:15:11;0.20;84.60
13992;DHT22;7070;53.586;9.692;2024-03-08T03:17:38;0.20;84.60
13992;DHT22;7070;53.586;9.692;2024-03-08T03:20:07;0.20;84.50
13992;DHT22;7070;53.586;9.692;2024-03-08T03:22:36;0.10;84.60
13992;DHT22;7070;53.586;9.692;2024-03-08T03:25:04;0.10;84.50
13992;DHT22;7070;53.586;9.692;2024-03-08T03:27:32;0.10;84.60
13992;DHT22;7070;53.586;9.692;2024-03-08T03:30:00;0.10;84.60
13992;DHT22;7070;53.586;9.692;2024-03-08T03:32:46;0.10;84.60
13992;DHT22;7070;53.586;9.692;2024-03-08T03:35:13;0.10;84.40
13992;DHT22;7070;53.586;9.692;2024-03-08T03:37:41;0.10;84.60
13992;DHT22;7070;53.586;9.692;2024-03-08T03:40:11;0.00;84.60
13992;DHT22;7070;53.586;9.692;2024-03-08T03:42:38;0.00;84.50
13992;DHT22;7070;53.586;9.692;2024-03-08T03:45:08;0.10;84.70
13992;DHT22;7070;53.586;9.692;2024-03-08T03:47:36;0.00;84.50
13992;DHT22;7070;53.586;9.692;2024-03-08T03:50:04;0.00;84.70
13992;DHT22;7070;53.586;9.692;2024-03-08T03:52:31;0.00;84.70
13992;DHT22;7070;53.586;9.692;2024-03-08T03:54:58;-0.10;84.60
13992;DHT22;7070;53.586;9.692;2024-03-08T03:57:25;0.00;84.80
13992;DHT22;7070;53.586;9.692;2024-03-08T03:59:52;-0.10;85.40
13992;DHT22;7070;53.586;9.692;2024-03-08T04:02:20;0.00;84.70
13992;DHT22;7070;53.586;9.692;2024-03-08T04:04:47;0.00;84.80
13992;DHT22;7070;53.586;9.692;2024-03-08T04:07:14;0.00;84.80
13992;DHT22;7070;53.586;9.692;2024-03-08T04:09:42;-0.10;84.70
13992;DHT22;7070;53.586;9.692;2024-03-08T04:12:09;-0.10;85.60
13992;DHT22;7070;53.586;9.692;2024-03-08T04:14:36;-0.10;84.80
13992;DHT22;7070;53.586;9.692;2024-03-08T04:17:03;-0.10;85.60
13992;DHT22;7070;53.586;9.692;2024-03-08T04:19:33;-0.10;84.80
13992;DHT22;7070;53.586;9.692;2024-03-08T04:22:00;0.00;84.90
13992;DHT22;7070;53.586;9.692;2024-03-08T04:24:27;-0.10;84.80
13992;DHT22;7070;53.586;9.692;2024-03-08T04:26:56;0.00;84.90
13992;DHT22;7070;53.586;9.692;2024-03-08T04:29:23;-0.20;84.80
13992;DHT22;7070;53.586;9.692;2024-03-08T04:31:50;-0.20;84.70
13992;DHT22;7070;53.586;9.692;2024-03-08T04:34:19;-0.20;84.70
13992;DHT22;7070;53.586;9.692;2024-03-08T04:36:48;-0.20;84.80
13992;DHT22;7070;53.586;9.692;2024-03-08T04:39:15;-0.10;85.00
13992;DHT22;7070;53.586;9.692;2024-03-08T04:41:44;-0.20;84.80
13992;DHT22;7070;53.586;9.692;2024-03-08T04:44:11;-0.30;84.70
13992;DHT22;7070;53.586;9.692;2024-03-08T04:46:39;-0.30;85.00
13992;DHT22;7070;53.586;9.692;2024-03-08T04:49:06;-0.30;84.90
13992;DHT22;7070;53.586;9.692;2024-03-08T04:51:33;-0.30;85.00
13992;DHT22;7070;53.586;9.692;2024-03-08T04:54:02;-0.30;84.90
13992;DHT22;7070;53.586;9.692;2024-03-08T04:56:30;-0.30;85.00
13992;DHT22;7070;53.586;9.692;2024-03-08T04:58:57;-0.30;85.00
13992;DHT22;7070;53.586;9.692;2024-03-08T05:01:24;-0.30;85.00
13992;DHT22;7070;53.586;9.692;2024-03-08T05:03:51;-0.30;85.00
13992;DHT22;7070;53.586;9.692;2024-03-08T05:06:20;-0.10;85.20
13992;DHT22;7070;53.586;9.692;2024-03-08T05:08:48;-0.30;85.00
13992;DHT22;7070;53.586;9.692;2024-03-08T05:11:17;-0.30;85.10
13992;DHT22;7070;53.586;9.692;2024-03-08T05:13:44;-0.30;85.10
13992;DHT22;7070;53.586;9.692;2024-03-08T05:16:11;-0.40;84.90
13992;DHT22;7070;53.586;9.692;2024-03-08T05:18:41;-0.40;85.10
13992;DHT22;7070;53.586;9.692;2024-03-08T05:21:08;-0.40;85.00
13992;DHT22;7070;53.586;9.692;2024-03-08T05:23:35;-0.40;84.90
13992;DHT22;7070;53.586;9.692;2024-03-08T05:26:05;-0.40;85.00
13992;DHT22;7070;53.586;9.692;2024-03-08T05:28:34;-0.40;85.00
13992;DHT22;7070;53.586;9.692;2024-03-08T05:31:00;-0.40;85.00
13992;DHT22;7070;53.586;9.692;2024-03-08T05:33:27;-0.40;85.00
13992;DHT22;7070;53.586;9.692;2024-03-08T05:35:53;-0.40;84.90
13992;DHT22;7070;53.586;9.692;2024-03-08T05:38:21;-0.50;85.10
13992;DHT22;7070;53.586;9.692;2024-03-08T05:40:48;-0.50;85.00
13992;DHT22;7070;53.586;9.692;2024-03-08T05:43:16;-0.40;85.10
13992;DHT22;7070;53.586;9.692;2024-03-08T05:45:47;-0.50;84.90
13992;DHT22;7070;53.586;9.692;2024-03-08T05:48:17;-0.50;84.90
13992;DHT22;7070;53.586;9.692;2024-03-08T05:50:44;-0.50;84.90
13992;DHT22;7070;53.586;9.692;2024-03-08T05:53:11;-0.50;84.80
13992;DHT22;7070;53.586;9.692;2024-03-08T05:55:38;-0.50;84.80
13992;DHT22;7070;53.586;9.692;2024-03-08T05:58:06;-0.60;84.80
13992;DHT22;7070;53.586;9.692;2024-03-08T06:00:33;-0.60;85.00
13992;DHT22;7070;53.586;9.692;2024-03-08T06:03:03;-0.60;85.00
13992;DHT22;7070;53.586;9.692;2024-03-08T06:05:30;-0.60;85.10
13992;DHT22;7070;53.586;9.692;2024-03-08T06:07:57;-0.60;85.00
13992;DHT22;7070;53.586;9.692;2024-03-08T06:10:24;-0.60;85.10
13992;DHT22;7070;53.586;9.692;2024-03-08T06:12:54;-0.60;85.10
13992;DHT22;7070;53.586;9.692;2024-03-08T06:15:21;0.00;85.70
13992;DHT22;7070;53.586;9.692;2024-03-08T06:17:48;-0.60;85.10
13992;DHT22;7070;53.586;9.692;2024-03-08T06:20:16;-0.40;85.30
13992;DHT22;7070;53.586;9.692;2024-03-08T06:22:43;-0.60;85.40
13992;DHT22;7070;53.586;9.692;2024-03-08T06:25:10;-0.60;85.30
13992;DHT22;7070;53.586;9.692;2024-03-08T06:27:39;-0.50;85.40
13992;DHT22;7070;53.586;9.692;2024-03-08T06:30:09;-0.50;85.50
13992;DHT22;7070;53.586;9.692;2024-03-08T06:32:36;-0.40;85.60
13992;DHT22;7070;53.586;9.692;2024-03-08T06:35:03;-0.40;86.10
13992;DHT22;7070;53.586;9.692;2024-03-08T06:37:33;-0.40;85.70
13992;DHT22;7070;53.586;9.692;2024-03-08T06:40:01;-0.40;85.70
13992;DHT22;7070;53.586;9.692;2024-03-08T06:42:28;-0.40;86.50
13992;DHT22;7070;53.586;9.692;2024-03-08T06:44:59;-0.30;85.90
13992;DHT22;7070;53.586;9.692;2024-03-08T06:47:31;-0.30;86.00
13992;DHT22;7070;53.586;9.692;2024-03-08T06:49:58;-0.20;86.10
13992;DHT22;7070;53.586;9.692;2024-03-08T06:52:25;-0.20;86.00
13992;DHT22;7070;53.586;9.692;2024-03-08T06:54:54;-0.10;86.00
13992;DHT22;7070;53.586;9.692;2024-03-08T06:57:22;-0.10;86.00
13992;DHT22;7070;53.586;9.692;2024-03-08T06:59:49;0.00;86.10
13992;DHT22;7070;53.586;9.692;2024-03-08T07:02:17;0.00;86.00
13992;DHT22;7070;53.586;9.692;2024-03-08T07:04:45;0.10;86.10
13992;DHT22;7070;53.586;9.692;2024-03-08T07:07:12;0.10;86.10
13992;DHT22;7070;53.586;9.692;2024-03-08T07:09:40;0.20;86.20
13992;DHT22;7070;53.586;9.692;2024-03-08T07:12:09;0.20;86.20
13992;DHT22;7070;53.586;9.692;2024-03-08T07:14:39;0.30;86.50
13992;DHT22;7070;53.586;9.692;2024-03-08T07:17:06;0.40;86.50
13992;DHT22;7070;53.586;9.692;2024-03-08T07:19:34;0.40;86.50
13992;DHT22;7070;53.586;9.692;2024-03-08T07:22:03;0.50;86.50
13992;DHT22;7070;53.586;9.692;2024-03-08T07:24:34;0.50;86.40
13992;DHT22;7070;53.586;9.692;2024-03-08T07:27:17;0.60;86.60
13992;DHT22;7070;53.586;9.692;2024-03-08T07:29:44;0.70;86.60
13992;DHT22;7070;53.586;9.692;2024-03-08T07:32:10;0.80;86.70
13992;DHT22;7070;53.586;9.692;2024-03-08T07:34:47;0.80;86.70
13992;DHT22;7070;53.586;9.692;2024-03-08T07:37:14;0.90;86.80
13992;DHT22;7070;53.586;9.692;2024-03-08T07:39:41;1.30;87.20
13992;DHT22;7070;53.586;9.692;2024-03-08T07:42:08;1.00;86.90
13992;DHT22;7070;53.586;9.692;2024-03-08T07:44:37;1.10;86.80
13992;DHT22;7070;53.586;9.692;2024-03-08T07:47:04;1.10;86.80
13992;DHT22;7070;53.586;9.692;2024-03-08T07:49:34;1.20;86.80
13992;DHT22;7070;53.586;9.692;2024-03-08T07:52:03;1.20;87.50
13992;DHT22;7070;53.586;9.692;2024-03-08T07:54:32;1.30;86.80
13992;DHT22;7070;53.586;9.692;2024-03-08T07:56:59;1.40;86.90
13992;DHT22;7070;53.586;9.692;2024-03-08T07:59:28;1.50;87.00
13992;DHT22;7070;53.586;9.692;2024-03-08T08:01:57;1.50;86.90
13992;DHT22;7070;53.586;9.692;2024-03-08T08:04:25;1.60;86.80
13992;DHT22;7070;53.586;9.692;2024-03-08T08:06:52;1.60;86.90
13992;DHT22;7070;53.586;9.692;2024-03-08T08:09:20;1.70;86.90
13992;DHT22;7070;53.586;9.692;2024-03-08T08:11:54;1.80;86.90
13992;DHT22;7070;53.586;9.692;2024-03-08T08:14:21;1.80;86.90
13992;DHT22;7070;53.586;9.692;2024-03-08T08:16:48;1.90;87.00
13992;DHT22;7070;53.586;9.692;2024-03-08T08:19:19;1.90;87.00
13992;DHT22;7070;53.586;9.692;2024-03-08T08:21:53;2.00;87.10
13992;DHT22;7070;53.586;9.692;2024-03-08T08:24:20;2.10;87.10
13992;DHT22;7070;53.586;9.692;2024-03-08T08:26:47;2.20;87.20
13992;DHT22;7070;53.586;9.692;2024-03-08T08:29:14;2.20;87.20
13992;DHT22;7070;53.586;9.692;2024-03-08T08:31:41;2.30;87.30
13992;DHT22;7070;53.586;9.692;2024-03-08T08:34:09;2.40;87.50
13992;DHT22;7070;53.586;9.692;2024-03-08T08:36:38;2.50;87.50
13992;DHT22;7070;53.586;9.692;2024-03-08T08:39:05;2.60;87.60
13992;DHT22;7070;53.586;9.692;2024-03-08T08:41:38;2.70;87.60
13992;DHT22;7070;53.586;9.692;2024-03-08T08:44:05;2.80;87.70
13992;DHT22;7070;53.586;9.692;2024-03-08T08:46:35;2.90;87.70
13992;DHT22;7070;53.586;9.692;2024-03-08T08:49:03;3.00;87.60
13992;DHT22;7070;53.586;9.692;2024-03-08T08:51:31;3.10;87.60
13992;DHT22;7070;53.586;9.692;2024-03-08T08:54:00;3.20;87.80
13992;DHT22;7070;53.586;9.692;2024-03-08T08:56:27;3.30;87.90
13992;DHT22;7070;53.586;9.692;2024-03-08T08:58:55;3.40;87.80
13992;DHT22;7070;53.586;9.692;2024-03-08T09:01:23;3.60;87.90
13992;DHT22;7070;53.586;9.692;2024-03-08T09:03:50;3.60;87.80
13992;DHT22;7070;53.586;9.692;2024-03-08T09:06:17;3.80;88.60
13992;DHT22;7070;53.586;9.692;2024-03-08T09:08:44;3.80;87.70
13992;DHT22;7070;53.586;9.692;2024-03-08T09:11:13;4.00;87.70
13992;DHT22;7070;53.586;9.692;2024-03-08T09:13:40;4.10;87.80
13992;DHT22;7070;53.586;9.692;2024-03-08T09:16:08;4.20;87.60
13992;DHT22;7070;53.586;9.692;2024-03-08T09:18:36;4.30;87.70
13992;DHT22;7070;53.586;9.692;2024-03-08T09:21:03;4.50;87.70
13992;DHT22;7070;53.586;9.692;2024-03-08T09:23:30;4.50;87.60
13992;DHT22;7070;53.586;9.692;2024-03-08T09:25:57;4.60;88.20
13992;DHT22;7070;53.586;9.692;2024-03-08T09:28:26;4.80;88.10
13992;DHT22;7070;53.586;9.692;2024-03-08T09:30:53;4.90;88.20
13992;DHT22;7070;53.586;9.692;2024-03-08T09:33:22;5.00;87.30
13992;DHT22;7070;53.586;9.692;2024-03-08T09:35:49;5.10;87.00
13992;DHT22;7070;53.586;9.692;2024-03-08T09:38:17;5.20;86.90
13992;DHT22;7070;53.586;9.692;2024-03-08T09:40:46;5.30;86.80
13992;DHT22;7070;53.586;9.692;2024-03-08T09:43:13;5.40;86.60
13992;DHT22;7070;53.586;9.692;2024-03-08T09:45:42;5.50;86.30
13992;DHT22;7070;53.586;9.692;2024-03-08T09:48:11;5.60;86.10
13992;DHT22;7070;53.586;9.692;2024-03-08T09:50:39;5.70;86.00
13992;DHT22;7070;53.586;9.692;2024-03-08T09:53:06;5.70;85.70
13992;DHT22;7070;53.586;9.692;2024-03-08T09:55:35;5.90;85.50
13992;DHT22;7070;53.586;9.692;2024-03-08T09:58:05;5.90;85.20
13992;DHT22;7070;53.586;9.692;2024-03-08T10:00:51;6.00;85.10
13992;DHT22;7070;53.586;9.692;2024-03-08T10:03:19;6.10;84.80
13992;DHT22;7070;53.586;9.692;2024-03-08T10:05:46;6.10;84.60
13992;DHT22;7070;53.586;9.692;2024-03-08T10:08:13;6.20;84.40
13992;DHT22;7070;53.586;9.692;2024-03-08T10:10:40;6.30;84.20
13992;DHT22;7070;53.586;9.692;2024-03-08T10:13:07;6.40;84.00
13992;DHT22;7070;53.586;9.692;2024-03-08T10:15:34;6.40;83.60
13992;DHT22;7070;53.586;9.692;2024-03-08T10:18:03;6.50;83.40
13992;DHT22;7070;53.586;9.692;2024-03-08T10:20:31;6.60;83.20
13992;DHT22;7070;53.586;9.692;2024-03-08T10:22:59;6.60;83.00
13992;DHT22;7070;53.586;9.692;2024-03-08T10:25:26;6.70;82.90
13992;DHT22;7070;53.586;9.692;2024-03-08T10:27:53;6.80;82.60
13992;DHT22;7070;53.586;9.692;2024-03-08T10:30:20;6.80;82.40
13992;DHT22;7070;53.586;9.692;2024-03-08T10:32:47;6.90;82.10
13992;DHT22;7070;53.586;9.692;2024-03-08T10:35:16;7.00;81.90
13992;DHT22;7070;53.586;9.692;2024-03-08T10:37:47;7.00;81.50
13992;DHT22;7070;53.586;9.692;2024-03-08T10:40:17;7.10;81.40
13992;DHT22;7070;53.586;9.692;2024-03-08T10:42:51;7.10;81.20
13992;DHT22;7070;53.586;9.692;2024-03-08T10:45:28;7.30;81.20
13992;DHT22;7070;53.586;9.692;2024-03-08T10:48:09;7.30;80.80
13992;DHT22;7070;53.586;9.692;2024-03-08T10:50:40;7.40;80.50
13992;DHT22;7070;53.586;9.692;2024-03-08T10:53:11;7.40;80.20
13992;DHT22;7070;53.586;9.692;2024-03-08T10:55:40;7.40;79.80
13992;DHT22;7070;53.586;9.692;2024-03-08T10:58:08;7.50;79.60
13992;DHT22;7070;53.586;9.692;2024-03-08T11:00:35;7.50;79.40
13992;DHT22;7070;53.586;9.692;2024-03-08T11:03:02;7.60;79.20
13992;DHT22;7070;53.586;9.692;2024-03-08T11:05:36;7.60;78.90
13992;DHT22;7070;53.586;9.692;2024-03-08T11:08:17;7.60;78.80
13992;DHT22;7070;53.586;9.692;2024-03-08T11:10:49;7.70;78.60
13992;DHT22;7070;53.586;9.692;2024-03-08T11:13:35;7.70;78.30
13992;DHT22;7070;53.586;9.692;2024-03-08T11:16:07;7.70;78.30
13992;DHT22;7070;53.586;9.692;2024-03-08T11:18:35;7.70;78.10
13992;DHT22;7070;53.586;9.692;2024-03-08T11:21:03;7.80;77.90
13992;DHT22;7070;53.586;9.692;2024-03-08T11:23:33;7.90;77.90
13992;DHT22;7070;53.586;9.692;2024-03-08T11:26:01;7.90;77.70
13992;DHT22;7070;53.586;9.692;2024-03-08T11:28:33;8.00;77.50
13992;DHT22;7070;53.586;9.692;2024-03-08T11:31:24;8.00;77.10
13992;DHT22;7070;53.586;9.692;2024-03-08T11:33:55;8.00;77.30
13992;DHT22;7070;53.586;9.692;2024-03-08T11:36:23;8.00;76.90
13992;DHT22;7070;53.586;9.692;2024-03-08T11:38:52;8.10;76.80
13992;DHT22;7070;53.586;9.692;2024-03-08T11:41:22;8.10;76.70
13992;DHT22;7070;53.586;9.692;2024-03-08T11:44:03;8.10;76.70
13992;DHT22;7070;53.586;9.692;2024-03-08T11:46:31;8.20;76.70
13992;DHT22;7070;53.586;9.692;2024-03-08T11:49:00;8.20;76.50
13992;DHT22;7070;53.586;9.692;2024-03-08T11:55:28;6.80;75.20
13992;DHT22;7070;53.586;9.692;2024-03-08T11:58:26;8.70;77.60
13992;DHT22;7070;53.586;9.692;2024-03-08T12:01:13;8.60;78.60
13992;DHT22;7070;53.586;9.692;2024-03-08T12:07:25;7.40;74.90
13992;DHT22;7070;53.586;9.692;2024-03-08T12:10:17;8.90;78.20
13992;DHT22;7070;53.586;9.692;2024-03-08T12:12:47;9.50;76.90
13992;DHT22;7070;53.586;9.692;2024-03-08T12:15:50;8.70;76.40
13992;DHT22;7070;53.586;9.692;2024-03-08T12:18:50;8.50;75.50
13992;DHT22;7070;53.586;9.692;2024-03-08T12:25:14;8.70;75.50
13992;DHT22;7070;53.586;9.692;2024-03-08T12:27:43;10.00;76.20
13992;DHT22;7070;53.586;9.692;2024-03-08T12:30:32;9.30;76.60
13992;DHT22;7070;53.586;9.692;2024-03-08T12:33:13;6.90;73.20
13992;DHT22;7070;53.586;9.692;2024-03-08T12:36:02;8.90;75.30
13992;DHT22;7070;53.586;9.692;2024-03-08T12:38:46;10.80;75.80
13992;DHT22;7070;53.586;9.692;2024-03-08T12:41:39;8.90;75.40
13992;DHT22;7070;53.586;9.692;2024-03-08T12:44:06;9.00;74.70
13992;DHT22;7070;53.586;9.692;2024-03-08T12:46:38;8.80;74.20
13992;DHT22;7070;53.586;9.692;2024-03-08T12:49:08;8.80;74.10
13992;DHT22;7070;53.586;9.692;2024-03-08T12:51:35;8.90;74.20
13992;DHT22;7070;53.586;9.692;2024-03-08T12:54:02;8.90;74.10
13992;DHT22;7070;53.586;9.692;2024-03-08T12:56:30;8.90;74.10
13992;DHT22;7070;53.586;9.692;2024-03-08T12:58:59;8.90;73.90
13992;DHT22;7070;53.586;9.692;2024-03-08T13:01:26;8.90;73.90
13992;DHT22;7070;53.586;9.692;2024-03-08T13:03:54;8.90;73.60
13992;DHT22;7070;53.586;9.692;2024-03-08T13:06:22;9.00;73.80
13992;DHT22;7070;53.586;9.692;2024-03-08T13:08:50;9.00;74.10
13992;DHT22;7070;53.586;9.692;2024-03-08T13:11:17;9.00;74.60
13992;DHT22;7070;53.586;9.692;2024-03-08T13:13:45;9.00;74.90
13992;DHT22;7070;53.586;9.692;2024-03-08T13:16:12;9.00;75.00
13992;DHT22;7070;53.586;9.692;2024-03-08T13:18:41;9.10;75.20
13992;DHT22;7070;53.586;9.692;2024-03-08T13:21:10;9.00;74.70
13992;DHT22;7070;53.586;9.692;2024-03-08T13:23:40;9.10;74.40
13992;DHT22;7070;53.586;9.692;2024-03-08T13:26:12;9.10;74.50
13992;DHT22;7070;53.586;9.692;2024-03-08T13:28:41;9.10;75.50
13992;DHT22;7070;53.586;9.692;2024-03-08T13:31:07;9.10;75.30
13992;DHT22;7070;53.586;9.692;2024-03-08T13:33:35;9.10;75.70
13992;DHT22;7070;53.586;9.692;2024-03-08T13:36:05;9.10;75.60
13992;DHT22;7070;53.586;9.692;2024-03-08T13:38:42;9.10;75.40
13992;DHT22;7070;53.586;9.692;2024-03-08T13:41:10;9.10;75.60
13992;DHT22;7070;53.586;9.692;2024-03-08T13:43:40;9.20;75.50
13992;DHT22;7070;53.586;9.692;2024-03-08T13:46:07;9.10;75.20
13992;DHT22;7070;53.586;9.692;2024-03-08T13:48:36;9.20;75.20
13992;DHT22;7070;53.586;9.692;2024-03-08T13:51:04;9.20;74.60
13992;DHT22;7070;53.586;9.692;2024-03-08T13:53:32;9.20;74.20
13992;DHT22;7070;53.586;9.692;2024-03-08T13:56:01;9.30;73.90
13992;DHT22;7070;53.586;9.692;2024-03-08T13:58:28;9.30;73.90
13992;DHT22;7070;53.586;9.692;2024-03-08T14:00:55;9.20;73.80
13992;DHT22;7070;53.586;9.692;2024-03-08T14:03:22;9.20;73.70
13992;DHT22;7070;53.586;9.692;2024-03-08T14:05:50;9.30;73.90
13992;DHT22;7070;53.586;9.692;2024-03-08T14:08:17;9.20;74.70
13992;DHT22;7070;53.586;9.692;2024-03-08T14:10:44;9.30;74.40
13992;DHT22;7070;53.586;9.692;2024-03-08T14:13:14;9.30;74.50
13992;DHT22;7070;53.586;9.692;2024-03-08T14:15:44;9.30;74.80
13992;DHT22;7070;53.586;9.692;2024-03-08T14:18:12;9.40;75.20
13992;DHT22;7070;53.586;9.692;2024-03-08T14:20:39;9.40;75.30
13992;DHT22;7070;53.586;9.692;2024-03-08T14:23:07;9.40;75.70
13992;DHT22;7070;53.586;9.692;2024-03-08T14:25:34;9.40;75.50
13992;DHT22;7070;53.586;9.692;2024-03-08T14:28:01;9.40;75.40
13992;DHT22;7070;53.586;9.692;2024-03-08T14:30:33;9.40;75.40
13992;DHT22;7070;53.586;9.692;2024-03-08T14:33:04;9.40;75.40
13992;DHT22;7070;53.586;9.692;2024-03-08T14:35:34;9.50;75.70
13992;DHT22;7070;53.586;9.692;2024-03-08T14:38:01;9.50;75.50
13992;DHT22;7070;53.586;9.692;2024-03-08T14:40:28;9.50;75.50
13992;DHT22;7070;53.586;9.692;2024-03-08T14:42:56;9.50;75.50
13992;DHT22;7070;53.586;9.692;2024-03-08T14:45:23;9.50;74.80
13992;DHT22;7070;53.586;9.692;2024-03-08T14:47:53;9.50;74.60
13992;DHT22;7070;53.586;9.692;2024-03-08T14:50:21;9.50;75.00
13992;DHT22;7070;53.586;9.692;2024-03-08T14:52:49;9.50;75.40
13992;DHT22;7070;53.586;9.692;2024-03-08T14:55:16;9.50;75.60
13992;DHT22;7070;53.586;9.692;2024-03-08T14:57:45;9.50;75.70
13992;DHT22;7070;53.586;9.692;2024-03-08T15:00:13;9.50;75.70
13992;DHT22;7070;53.586;9.692;2024-03-08T15:02:43;9.50;75.90
13992;DHT22;7070;53.586;9.692;2024-03-08T15:05:11;9.50;75.40
13992;DHT22;7070;53.586;9.692;2024-03-08T15:07:38;9.50;75.40
13992;DHT22;7070;53.586;9.692;2024-03-08T15:10:07;9.50;75.70
13992;DHT22;7070;53.586;9.692;2024-03-08T15:12:37;9.60;76.10
13992;DHT22;7070;53.586;9.692;2024-03-08T15:15:06;9.50;75.80
13992;DHT22;7070;53.586;9.692;2024-03-08T15:17:35;9.50;75.90
13992;DHT22;7070;53.586;9.692;2024-03-08T15:20:06;9.60;76.40
13992;DHT22;7070;53.586;9.692;2024-03-08T15:22:42;9.50;76.60
13992;DHT22;7070;53.586;9.692;2024-03-08T15:25:09;9.50;76.70
13992;DHT22;7070;53.586;9.692;2024-03-08T15:27:38;9.40;76.70
13992;DHT22;7070;53.586;9.692;2024-03-08T15:30:07;9.50;76.80
13992;DHT22;7070;53.586;9.692;2024-03-08T15:32:39;9.40;76.80
13992;DHT22;7070;53.586;9.692;2024-03-08T15:35:07;9.50;76.70
13992;DHT22;7070;53.586;9.692;2024-03-08T15:37:39;9.40;76.40
13992;DHT22;7070;53.586;9.692;2024-03-08T15:40:10;9.50;76.40
13992;DHT22;7070;53.586;9.692;2024-03-08T15:42:54;9.40;76.10
13992;DHT22;7070;53.586;9.692;2024-03-08T15:45:21;9.40;75.90
13992;DHT22;7070;53.586;9.692;2024-03-08T15:47:48;9.40;75.00
13992;DHT22;7070;53.586;9.692;2024-03-08T15:50:15;9.40;74.70
13992;DHT22;7070;53.586;9.692;2024-03-08T15:52:43;9.30;74.50
13992;DHT22;7070;53.586;9.692;2024-03-08T15:55:15;9.30;74.40
13992;DHT22;7070;53.586;9.692;2024-03-08T15:57:45;9.30;74.70
13992;DHT22;7070;53.586;9.692;2024-03-08T16:00:14;9.20;74.60
13992;DHT22;7070;53.586;9.692;2024-03-08T16:02:56;9.20;74.40
13992;DHT22;7070;53.586;9.692;2024-03-08T16:05:23;9.10;74.50
13992;DHT22;7070;53.586;9.692;2024-03-08T16:07:50;9.10;74.60
13992;DHT22;7070;53.586;9.692;2024-03-08T16:10:18;9.10;74.40
13992;DHT22;7070;53.586;9.692;2024-03-08T16:12:48;9.10;74.60
13992;DHT22;7070;53.586;9.692;2024-03-08T16:15:16;9.00;74.40
13992;DHT22;7070;53.586;9.692;2024-03-08T16:17:43;9.00;74.60
13992;DHT22;7070;53.586;9.692;2024-03-08T16:20:10;9.00;75.60
13992;DHT22;7070;53.586;9.692;2024-03-08T16:22:42;9.00;74.70